sensor_id;sensor_type;location;lat;lon;timestamp;P1;durP1;ratioP1;P2;durP2;ratioP2
85871;SDS011;76390;44.082;3.046;2024-02-21T00:02:04;7.75;;;3.95;;
85871;SDS011;76390;44.082;3.046;2024-02-21T00:04:30;8.20;;;4.15;;
85871;SDS011;76390;44.082;3.046;2024-02-21T00:06:55;7.13;;;3.92;;
85871;SDS011;76390;44.082;3.046;2024-02-21T00:09:21;6.85;;;3.22;;
85871;SDS011;76390;44.082;3.046;2024-02-21T00:11:46;6.95;;;3.30;;
85871;SDS011;76390;44.082;3.046;2024-02-21T00:14:12;12.52;;;5.55;;
85871;SDS011;76390;44.082;3.046;2024-02-21T00:16:38;8.07;;;4.35;;
85871;SDS011;76390;44.082;3.046;2024-02-21T00:19:03;7.57;;;4.15;;
85871;SDS011;76390;44.082;3.046;2024-02-21T00:21:29;13.63;;;5.80;;
85871;SDS011;76390;44.082;3.046;2024-02-21T00:23:55;10.73;;;5.88;;
85871;SDS011;76390;44.082;3.046;2024-02-21T00:26:20;7.20;;;3.45;;
85871;SDS011;76390;44.082;3.046;2024-02-21T00:28:46;7.40;;;4.10;;
85871;SDS011;76390;44.082;3.046;2024-02-21T00:31:11;7.72;;;4.22;;
85871;SDS011;76390;44.082;3.046;2024-02-21T00:33:37;7.45;;;3.72;;
85871;SDS011;76390;44.082;3.046;2024-02-21T00:36:02;7.82;;;3.92;;
85871;SDS011;76390;44.082;3.046;2024-02-21T00:38:28;8.43;;;3.60;;
85871;SDS011;76390;44.082;3.046;2024-02-21T00:40:54;7.60;;;4.40;;
85871;SDS011;76390;44.082;3.046;2024-02-21T00:43:19;9.65;;;3.63;;
85871;SDS011;76390;44.082;3.046;2024-02-21T00:45:49;6.63;;;3.80;;
85871;SDS011;76390;44.082;3.046;2024-02-21T00:48:14;8.63;;;3.88;;
85871;SDS011;76390;44.082;3.046;2024-02-21T00:50:40;7.78;;;3.83;;
85871;SDS011;76390;44.082;3.046;2024-02-21T00:53:05;7.75;;;3.65;;
85871;SDS011;76390;44.082;3.046;2024-02-21T00:55:31;6.30;;;3.25;;
85871;SDS011;76390;44.082;3.046;2024-02-21T00:57:56;8.90;;;3.58;;
85871;SDS011;76390;44.082;3.046;2024-02-21T01:00:22;7.85;;;4.38;;
85871;SDS011;76390;44.082;3.046;2024-02-21T01:02:47;8.07;;;4.22;;
85871;SDS011;76390;44.082;3.046;2024-02-21T01:05:13;8.45;;;4.18;;
85871;SDS011;76390;44.082;3.046;2024-02-21T01:07:38;8.40;;;4.55;;
85871;SDS011;76390;44.082;3.046;2024-02-21T01:10:04;9.68;;;4.05;;
85871;SDS011;76390;44.082;3.046;2024-02-21T01:12:30;8.98;;;3.95;;
85871;SDS011;76390;44.082;3.046;2024-02-21T01:14:55;7.57;;;3.70;;
85871;SDS011;76390;44.082;3.046;2024-02-21T01:17:21;10.82;;;4.28;;
85871;SDS011;76390;44.082;3.046;2024-02-21T01:19:47;10.45;;;5.07;;
85871;SDS011;76390;44.082;3.046;2024-02-21T01:22:12;12.27;;;4.35;;
85871;SDS011;76390;44.082;3.046;2024-02-21T01:24:38;9.65;;;4.18;;
85871;SDS011;76390;44.082;3.046;2024-02-21T01:27:03;7.07;;;3.70;;
85871;SDS011;76390;44.082;3.046;2024-02-21T01:29:29;8.50;;;3.75;;
85871;SDS011;76390;44.082;3.046;2024-02-21T01:31:54;7.75;;;3.47;;
85871;SDS011;76390;44.082;3.046;2024-02-21T01:34:20;6.80;;;3.38;;
85871;SDS011;76390;44.082;3.046;2024-02-21T01:36:46;8.68;;;3.50;;
85871;SDS011;76390;44.082;3.046;2024-02-21T01:39:11;5.60;;;3.03;;
85871;SDS011;76390;44.082;3.046;2024-02-21T01:41:37;6.32;;;3.40;;
85871;SDS011;76390;44.082;3.046;2024-02-21T01:44:02;12.30;;;5.53;;
85871;SDS011;76390;44.082;3.046;2024-02-21T01:46:28;9.40;;;4.28;;
85871;SDS011;76390;44.082;3.046;2024-02-21T01:48:56;13.82;;;5.88;;
85871;SDS011;76390;44.082;3.046;2024-02-21T01:51:22;10.60;;;5.47;;
85871;SDS011;76390;44.082;3.046;2024-02-21T01:53:48;8.80;;;4.10;;
85871;SDS011;76390;44.082;3.046;2024-02-21T01:56:16;11.60;;;5.53;;
85871;SDS011;76390;44.082;3.046;2024-02-21T01:58:42;7.75;;;3.95;;
85871;SDS011;76390;44.082;3.046;2024-02-21T02:01:08;7.40;;;3.30;;
85871;SDS011;76390;44.082;3.046;2024-02-21T02:03:33;9.90;;;4.53;;
85871;SDS011;76390;44.082;3.046;2024-02-21T02:05:59;8.73;;;4.47;;
85871;SDS011;76390;44.082;3.046;2024-02-21T02:08:25;13.15;;;5.40;;
85871;SDS011;76390;44.082;3.046;2024-02-21T02:10:51;12.80;;;6.30;;
85871;SDS011;76390;44.082;3.046;2024-02-21T02:13:17;13.55;;;6.03;;
85871;SDS011;76390;44.082;3.046;2024-02-21T02:15:47;14.38;;;7.15;;
85871;SDS011;76390;44.082;3.046;2024-02-21T02:18:13;8.82;;;4.50;;
85871;SDS011;76390;44.082;3.046;2024-02-21T02:20:40;8.95;;;4.60;;
85871;SDS011;76390;44.082;3.046;2024-02-21T02:25:52;9.38;;;3.95;;
85871;SDS011;76390;44.082;3.046;2024-02-21T02:28:17;8.15;;;4.05;;
85871;SDS011;76390;44.082;3.046;2024-02-21T02:30:43;7.55;;;4.47;;
85871;SDS011;76390;44.082;3.046;2024-02-21T02:33:08;7.95;;;3.47;;
85871;SDS011;76390;44.082;3.046;2024-02-21T02:35:34;9.90;;;4.10;;
85871;SDS011;76390;44.082;3.046;2024-02-21T02:38:01;10.95;;;5.03;;
85871;SDS011;76390;44.082;3.046;2024-02-21T02:40:27;12.45;;;5.82;;
85871;SDS011;76390;44.082;3.046;2024-02-21T02:42:53;9.73;;;5.22;;
85871;SDS011;76390;44.082;3.046;2024-02-21T02:45:20;7.68;;;4.13;;
85871;SDS011;76390;44.082;3.046;2024-02-21T02:47:47;10.38;;;4.32;;
85871;SDS011;76390;44.082;3.046;2024-02-21T02:50:13;8.85;;;4.18;;
85871;SDS011;76390;44.082;3.046;2024-02-21T02:52:39;11.18;;;4.00;;
85871;SDS011;76390;44.082;3.046;2024-02-21T02:55:05;12.23;;;5.20;;
85871;SDS011;76390;44.082;3.046;2024-02-21T02:57:31;11.18;;;5.03;;
85871;SDS011;76390;44.082;3.046;2024-02-21T02:59:57;9.50;;;4.47;;
85871;SDS011;76390;44.082;3.046;2024-02-21T03:02:22;11.38;;;4.20;;
85871;SDS011;76390;44.082;3.046;2024-02-21T03:04:48;9.43;;;4.53;;
85871;SDS011;76390;44.082;3.046;2024-02-21T03:07:14;8.63;;;4.75;;
85871;SDS011;76390;44.082;3.046;2024-02-21T03:09:40;12.93;;;5.45;;
85871;SDS011;76390;44.082;3.046;2024-02-21T03:12:08;12.95;;;5.22;;
85871;SDS011;76390;44.082;3.046;2024-02-21T03:14:34;9.98;;;4.55;;
85871;SDS011;76390;44.082;3.046;2024-02-21T03:17:00;8.38;;;4.80;;
85871;SDS011;76390;44.082;3.046;2024-02-21T03:19:26;10.18;;;4.85;;
85871;SDS011;76390;44.082;3.046;2024-02-21T03:21:52;8.30;;;4.30;;
85871;SDS011;76390;44.082;3.046;2024-02-21T03:24:18;12.30;;;5.35;;
85871;SDS011;76390;44.082;3.046;2024-02-21T03:26:44;10.13;;;4.78;;
85871;SDS011;76390;44.082;3.046;2024-02-21T03:29:10;10.70;;;4.95;;
85871;SDS011;76390;44.082;3.046;2024-02-21T03:31:36;10.55;;;4.60;;
85871;SDS011;76390;44.082;3.046;2024-02-21T03:34:02;11.05;;;5.28;;
85871;SDS011;76390;44.082;3.046;2024-02-21T03:36:27;10.10;;;5.00;;
85871;SDS011;76390;44.082;3.046;2024-02-21T03:38:54;7.40;;;3.80;;
85871;SDS011;76390;44.082;3.046;2024-02-21T03:41:20;10.50;;;4.20;;
85871;SDS011;76390;44.082;3.046;2024-02-21T03:43:45;10.23;;;4.57;;
85871;SDS011;76390;44.082;3.046;2024-02-21T03:46:11;10.60;;;4.55;;
85871;SDS011;76390;44.082;3.046;2024-02-21T03:48:36;9.52;;;4.45;;
85871;SDS011;76390;44.082;3.046;2024-02-21T03:51:02;11.20;;;4.35;;
85871;SDS011;76390;44.082;3.046;2024-02-21T03:53:28;9.27;;;4.10;;
85871;SDS011;76390;44.082;3.046;2024-02-21T03:55:53;9.77;;;4.00;;
85871;SDS011;76390;44.082;3.046;2024-02-21T03:58:20;8.05;;;3.72;;
85871;SDS011;76390;44.082;3.046;2024-02-21T04:00:45;8.32;;;4.00;;
85871;SDS011;76390;44.082;3.046;2024-02-21T04:03:11;7.95;;;4.00;;
85871;SDS011;76390;44.082;3.046;2024-02-21T04:05:36;7.93;;;3.63;;
85871;SDS011;76390;44.082;3.046;2024-02-21T04:08:05;7.57;;;3.38;;
85871;SDS011;76390;44.082;3.046;2024-02-21T04:10:31;7.38;;;3.58;;
85871;SDS011;76390;44.082;3.046;2024-02-21T04:12:56;5.95;;;3.40;;
85871;SDS011;76390;44.082;3.046;2024-02-21T04:15:22;12.68;;;4.18;;
85871;SDS011;76390;44.082;3.046;2024-02-21T04:17:47;6.75;;;3.75;;
85871;SDS011;76390;44.082;3.046;2024-02-21T04:20:14;7.50;;;3.88;;
85871;SDS011;76390;44.082;3.046;2024-02-21T04:22:40;7.78;;;3.67;;
85871;SDS011;76390;44.082;3.046;2024-02-21T04:25:07;6.25;;;3.05;;
85871;SDS011;76390;44.082;3.046;2024-02-21T04:27:33;9.68;;;3.88;;
85871;SDS011;76390;44.082;3.046;2024-02-21T04:29:59;7.30;;;4.00;;
85871;SDS011;76390;44.082;3.046;2024-02-21T04:32:25;8.13;;;3.67;;
85871;SDS011;76390;44.082;3.046;2024-02-21T04:34:52;6.13;;;3.65;;
85871;SDS011;76390;44.082;3.046;2024-02-21T04:37:18;8.20;;;3.80;;
85871;SDS011;76390;44.082;3.046;2024-02-21T04:39:44;7.47;;;3.92;;
85871;SDS011;76390;44.082;3.046;2024-02-21T04:42:09;7.88;;;3.53;;
85871;SDS011;76390;44.082;3.046;2024-02-21T04:44:35;6.10;;;3.45;;
85871;SDS011;76390;44.082;3.046;2024-02-21T04:47:01;6.97;;;3.25;;
85871;SDS011;76390;44.082;3.046;2024-02-21T04:49:27;9.48;;;4.20;;
85871;SDS011;76390;44.082;3.046;2024-02-21T04:51:52;6.68;;;3.60;;
85871;SDS011;76390;44.082;3.046;2024-02-21T04:54:18;8.20;;;3.70;;
85871;SDS011;76390;44.082;3.046;2024-02-21T04:56:43;9.00;;;4.13;;
85871;SDS011;76390;44.082;3.046;2024-02-21T04:59:09;10.45;;;4.78;;
85871;SDS011;76390;44.082;3.046;2024-02-21T05:01:34;6.85;;;3.95;;
85871;SDS011;76390;44.082;3.046;2024-02-21T05:04:00;6.50;;;4.18;;
85871;SDS011;76390;44.082;3.046;2024-02-21T05:06:25;8.32;;;4.70;;
85871;SDS011;76390;44.082;3.046;2024-02-21T05:08:51;9.13;;;4.68;;
85871;SDS011;76390;44.082;3.046;2024-02-21T05:11:16;10.35;;;4.53;;
85871;SDS011;76390;44.082;3.046;2024-02-21T05:13:42;8.68;;;4.53;;
85871;SDS011;76390;44.082;3.046;2024-02-21T05:16:07;9.70;;;4.18;;
85871;SDS011;76390;44.082;3.046;2024-02-21T05:18:33;11.25;;;4.93;;
85871;SDS011;76390;44.082;3.046;2024-02-21T05:21:01;8.30;;;3.70;;
85871;SDS011;76390;44.082;3.046;2024-02-21T05:23:27;6.97;;;4.03;;
85871;SDS011;76390;44.082;3.046;2024-02-21T05:25:52;11.52;;;3.90;;
85871;SDS011;76390;44.082;3.046;2024-02-21T05:28:18;8.32;;;4.43;;
85871;SDS011;76390;44.082;3.046;2024-02-21T05:30:43;6.00;;;3.55;;
85871;SDS011;76390;44.082;3.046;2024-02-21T05:33:09;9.30;;;4.32;;
85871;SDS011;76390;44.082;3.046;2024-02-21T05:35:34;7.90;;;3.97;;
85871;SDS011;76390;44.082;3.046;2024-02-21T05:38:01;7.93;;;5.00;;
85871;SDS011;76390;44.082;3.046;2024-02-21T05:40:29;9.63;;;5.13;;
85871;SDS011;76390;44.082;3.046;2024-02-21T05:42:54;10.77;;;4.97;;
85871;SDS011;76390;44.082;3.046;2024-02-21T05:45:20;8.80;;;4.25;;
85871;SDS011;76390;44.082;3.046;2024-02-21T05:47:45;9.88;;;4.20;;
85871;SDS011;76390;44.082;3.046;2024-02-21T05:50:13;8.73;;;4.30;;
85871;SDS011;76390;44.082;3.046;2024-02-21T05:52:38;7.18;;;3.45;;
85871;SDS011;76390;44.082;3.046;2024-02-21T05:55:06;8.07;;;3.47;;
85871;SDS011;76390;44.082;3.046;2024-02-21T05:57:32;6.68;;;3.42;;
85871;SDS011;76390;44.082;3.046;2024-02-21T05:59:57;7.13;;;3.65;;
85871;SDS011;76390;44.082;3.046;2024-02-21T06:02:23;7.22;;;3.45;;
85871;SDS011;76390;44.082;3.046;2024-02-21T06:04:48;19.52;;;7.65;;
85871;SDS011;76390;44.082;3.046;2024-02-21T06:07:14;13.23;;;5.68;;
85871;SDS011;76390;44.082;3.046;2024-02-21T06:09:39;10.13;;;5.28;;
85871;SDS011;76390;44.082;3.046;2024-02-21T06:12:04;10.02;;;4.80;;
85871;SDS011;76390;44.082;3.046;2024-02-21T06:14:30;14.07;;;5.55;;
85871;SDS011;76390;44.082;3.046;2024-02-21T06:16:56;13.23;;;5.38;;
85871;SDS011;76390;44.082;3.046;2024-02-21T06:19:21;12.50;;;5.65;;
85871;SDS011;76390;44.082;3.046;2024-02-21T06:21:47;15.15;;;6.40;;
85871;SDS011;76390;44.082;3.046;2024-02-21T06:24:12;10.80;;;5.25;;
85871;SDS011;76390;44.082;3.046;2024-02-21T06:26:38;26.00;;;10.35;;
85871;SDS011;76390;44.082;3.046;2024-02-21T06:29:05;17.30;;;5.72;;
85871;SDS011;76390;44.082;3.046;2024-02-21T06:31:31;12.35;;;5.72;;
85871;SDS011;76390;44.082;3.046;2024-02-21T06:33:57;18.90;;;8.20;;
85871;SDS011;76390;44.082;3.046;2024-02-21T06:36:22;17.85;;;7.57;;
85871;SDS011;76390;44.082;3.046;2024-02-21T06:38:48;20.00;;;7.68;;
85871;SDS011;76390;44.082;3.046;2024-02-21T06:41:17;13.10;;;5.22;;
85871;SDS011;76390;44.082;3.046;2024-02-21T06:43:44;9.10;;;4.43;;
85871;SDS011;76390;44.082;3.046;2024-02-21T06:46:11;12.02;;;4.47;;
85871;SDS011;76390;44.082;3.046;2024-02-21T06:48:37;10.00;;;4.60;;
85871;SDS011;76390;44.082;3.046;2024-02-21T06:51:02;6.75;;;4.30;;
85871;SDS011;76390;44.082;3.046;2024-02-21T06:53:28;7.35;;;3.63;;
85871;SDS011;76390;44.082;3.046;2024-02-21T06:55:54;7.75;;;3.53;;
85871;SDS011;76390;44.082;3.046;2024-02-21T06:58:19;13.50;;;6.55;;
85871;SDS011;76390;44.082;3.046;2024-02-21T07:00:45;27.75;;;13.20;;
85871;SDS011;76390;44.082;3.046;2024-02-21T07:03:10;18.88;;;6.70;;
85871;SDS011;76390;44.082;3.046;2024-02-21T07:05:36;11.10;;;5.68;;
85871;SDS011;76390;44.082;3.046;2024-02-21T07:08:01;18.30;;;8.32;;
85871;SDS011;76390;44.082;3.046;2024-02-21T07:10:28;22.33;;;9.95;;
85871;SDS011;76390;44.082;3.046;2024-02-21T07:12:54;16.08;;;8.77;;
85871;SDS011;76390;44.082;3.046;2024-02-21T07:15:20;16.58;;;7.70;;
85871;SDS011;76390;44.082;3.046;2024-02-21T07:17:46;15.05;;;7.55;;
85871;SDS011;76390;44.082;3.046;2024-02-21T07:20:11;16.00;;;7.28;;
85871;SDS011;76390;44.082;3.046;2024-02-21T07:22:37;14.93;;;7.32;;
85871;SDS011;76390;44.082;3.046;2024-02-21T07:25:03;13.10;;;7.60;;
85871;SDS011;76390;44.082;3.046;2024-02-21T07:27:28;17.75;;;8.82;;
85871;SDS011;76390;44.082;3.046;2024-02-21T07:29:56;16.40;;;8.68;;
85871;SDS011;76390;44.082;3.046;2024-02-21T07:32:22;20.08;;;8.95;;
85871;SDS011;76390;44.082;3.046;2024-02-21T07:34:47;15.98;;;7.72;;
85871;SDS011;76390;44.082;3.046;2024-02-21T07:37:13;16.63;;;5.68;;
85871;SDS011;76390;44.082;3.046;2024-02-21T07:39:38;19.60;;;7.88;;
85871;SDS011;76390;44.082;3.046;2024-02-21T07:42:04;22.70;;;8.30;;
85871;SDS011;76390;44.082;3.046;2024-02-21T07:44:29;18.23;;;7.68;;
85871;SDS011;76390;44.082;3.046;2024-02-21T07:46:56;12.63;;;5.93;;
85871;SDS011;76390;44.082;3.046;2024-02-21T07:49:22;16.33;;;6.72;;
85871;SDS011;76390;44.082;3.046;2024-02-21T07:51:48;11.13;;;6.00;;
85871;SDS011;76390;44.082;3.046;2024-02-21T07:54:13;9.45;;;4.82;;
85871;SDS011;76390;44.082;3.046;2024-02-21T07:56:39;12.02;;;5.10;;
85871;SDS011;76390;44.082;3.046;2024-02-21T07:59:05;9.23;;;4.28;;
85871;SDS011;76390;44.082;3.046;2024-02-21T08:01:30;7.75;;;4.13;;
85871;SDS011;76390;44.082;3.046;2024-02-21T08:03:56;10.18;;;4.00;;
85871;SDS011;76390;44.082;3.046;2024-02-21T08:06:21;11.55;;;4.72;;
85871;SDS011;76390;44.082;3.046;2024-02-21T08:08:47;7.68;;;4.25;;
85871;SDS011;76390;44.082;3.046;2024-02-21T08:11:12;11.45;;;5.10;;
85871;SDS011;76390;44.082;3.046;2024-02-21T08:13:38;7.97;;;4.00;;
85871;SDS011;76390;44.082;3.046;2024-02-21T08:16:03;11.45;;;5.10;;
85871;SDS011;76390;44.082;3.046;2024-02-21T08:18:29;9.73;;;5.00;;
85871;SDS011;76390;44.082;3.046;2024-02-21T08:20:54;9.60;;;4.35;;
85871;SDS011;76390;44.082;3.046;2024-02-21T08:23:22;9.57;;;5.25;;
85871;SDS011;76390;44.082;3.046;2024-02-21T08:25:48;10.07;;;4.05;;
85871;SDS011;76390;44.082;3.046;2024-02-21T08:28:14;8.93;;;4.60;;
85871;SDS011;76390;44.082;3.046;2024-02-21T08:30:40;8.88;;;4.20;;
85871;SDS011;76390;44.082;3.046;2024-02-21T08:33:09;10.25;;;5.00;;
85871;SDS011;76390;44.082;3.046;2024-02-21T08:35:35;8.52;;;4.85;;
85871;SDS011;76390;44.082;3.046;2024-02-21T08:38:00;7.60;;;4.18;;
85871;SDS011;76390;44.082;3.046;2024-02-21T08:40:26;7.80;;;4.22;;
85871;SDS011;76390;44.082;3.046;2024-02-21T08:42:51;13.02;;;4.70;;
85871;SDS011;76390;44.082;3.046;2024-02-21T08:45:17;9.77;;;4.68;;
85871;SDS011;76390;44.082;3.046;2024-02-21T08:47:43;8.30;;;4.68;;
85871;SDS011;76390;44.082;3.046;2024-02-21T08:50:09;10.13;;;4.10;;
85871;SDS011;76390;44.082;3.046;2024-02-21T08:52:35;8.63;;;4.18;;
85871;SDS011;76390;44.082;3.046;2024-02-21T08:55:00;8.23;;;4.32;;
85871;SDS011;76390;44.082;3.046;2024-02-21T08:57:27;7.55;;;3.90;;
85871;SDS011;76390;44.082;3.046;2024-02-21T08:59:52;8.07;;;3.85;;
85871;SDS011;76390;44.082;3.046;2024-02-21T09:02:18;7.55;;;3.90;;
85871;SDS011;76390;44.082;3.046;2024-02-21T09:04:43;7.05;;;3.42;;
85871;SDS011;76390;44.082;3.046;2024-02-21T09:07:09;7.43;;;3.55;;
85871;SDS011;76390;44.082;3.046;2024-02-21T09:09:35;8.23;;;3.85;;
85871;SDS011;76390;44.082;3.046;2024-02-21T09:12:01;8.25;;;3.90;;
85871;SDS011;76390;44.082;3.046;2024-02-21T09:14:31;9.88;;;3.65;;
85871;SDS011;76390;44.082;3.046;2024-02-21T09:16:57;8.57;;;4.00;;
85871;SDS011;76390;44.082;3.046;2024-02-21T09:19:23;8.95;;;3.60;;
85871;SDS011;76390;44.082;3.046;2024-02-21T09:21:48;7.70;;;3.28;;
85871;SDS011;76390;44.082;3.046;2024-02-21T09:24:14;6.13;;;3.00;;
85871;SDS011;76390;44.082;3.046;2024-02-21T09:26:39;9.55;;;3.90;;
85871;SDS011;76390;44.082;3.046;2024-02-21T09:29:05;6.47;;;3.47;;
85871;SDS011;76390;44.082;3.046;2024-02-21T09:31:31;10.00;;;3.97;;
85871;SDS011;76390;44.082;3.046;2024-02-21T09:33:57;8.10;;;3.63;;
85871;SDS011;76390;44.082;3.046;2024-02-21T09:36:22;11.07;;;3.95;;
85871;SDS011;76390;44.082;3.046;2024-02-21T09:38:48;7.15;;;3.72;;
85871;SDS011;76390;44.082;3.046;2024-02-21T09:41:18;7.93;;;3.72;;
85871;SDS011;76390;44.082;3.046;2024-02-21T09:43:44;6.03;;;3.55;;
85871;SDS011;76390;44.082;3.046;2024-02-21T09:46:17;7.68;;;3.70;;
85871;SDS011;76390;44.082;3.046;2024-02-21T09:51:17;8.20;;;3.08;;
85871;SDS011;76390;44.082;3.046;2024-02-21T09:53:44;7.13;;;3.38;;
85871;SDS011;76390;44.082;3.046;2024-02-21T09:56:11;6.75;;;3.10;;
85871;SDS011;76390;44.082;3.046;2024-02-21T09:58:37;6.05;;;3.00;;
85871;SDS011;76390;44.082;3.046;2024-02-21T10:01:02;6.07;;;3.10;;
85871;SDS011;76390;44.082;3.046;2024-02-21T10:03:32;6.55;;;2.88;;
85871;SDS011;76390;44.082;3.046;2024-02-21T10:06:00;6.53;;;3.05;;
85871;SDS011;76390;44.082;3.046;2024-02-21T10:08:26;5.10;;;2.80;;
85871;SDS011;76390;44.082;3.046;2024-02-21T10:10:52;8.43;;;3.30;;
85871;SDS011;76390;44.082;3.046;2024-02-21T10:13:30;7.32;;;3.70;;
85871;SDS011;76390;44.082;3.046;2024-02-21T10:16:05;6.25;;;2.63;;
85871;SDS011;76390;44.082;3.046;2024-02-21T10:18:35;5.00;;;2.50;;
85871;SDS011;76390;44.082;3.046;2024-02-21T10:21:02;4.45;;;2.90;;
85871;SDS011;76390;44.082;3.046;2024-02-21T10:23:48;5.35;;;2.67;;
85871;SDS011;76390;44.082;3.046;2024-02-21T10:26:14;7.18;;;2.97;;
85871;SDS011;76390;44.082;3.046;2024-02-21T10:28:40;6.75;;;2.85;;
85871;SDS011;76390;44.082;3.046;2024-02-21T10:31:07;6.15;;;2.72;;
85871;SDS011;76390;44.082;3.046;2024-02-21T10:33:36;9.15;;;2.83;;
85871;SDS011;76390;44.082;3.046;2024-02-21T10:36:11;5.65;;;2.67;;
85871;SDS011;76390;44.082;3.046;2024-02-21T10:38:38;3.97;;;2.30;;
85871;SDS011;76390;44.082;3.046;2024-02-21T10:41:06;6.60;;;2.90;;
85871;SDS011;76390;44.082;3.046;2024-02-21T10:43:33;6.35;;;3.13;;
85871;SDS011;76390;44.082;3.046;2024-02-21T10:46:04;4.28;;;1.98;;
85871;SDS011;76390;44.082;3.046;2024-02-21T10:48:33;4.60;;;2.50;;
85871;SDS011;76390;44.082;3.046;2024-02-21T10:51:18;5.13;;;3.03;;
85871;SDS011;76390;44.082;3.046;2024-02-21T10:59:02;3.70;;;2.47;;
85871;SDS011;76390;44.082;3.046;2024-02-21T11:01:29;4.20;;;2.30;;
85871;SDS011;76390;44.082;3.046;2024-02-21T11:03:57;4.97;;;2.13;;
85871;SDS011;76390;44.082;3.046;2024-02-21T11:06:24;4.97;;;2.40;;
85871;SDS011;76390;44.082;3.046;2024-02-21T11:09:03;3.50;;;1.80;;
85871;SDS011;76390;44.082;3.046;2024-02-21T11:11:35;3.70;;;1.98;;
85871;SDS011;76390;44.082;3.046;2024-02-21T11:14:06;4.70;;;2.10;;
85871;SDS011;76390;44.082;3.046;2024-02-21T11:16:36;5.55;;;2.38;;
85871;SDS011;76390;44.082;3.046;2024-02-21T11:19:08;3.90;;;1.83;;
85871;SDS011;76390;44.082;3.046;2024-02-21T11:21:47;6.55;;;2.80;;
85871;SDS011;76390;44.082;3.046;2024-02-21T11:24:13;4.75;;;2.00;;
85871;SDS011;76390;44.082;3.046;2024-02-21T11:26:39;4.95;;;2.00;;
85871;SDS011;76390;44.082;3.046;2024-02-21T11:29:07;4.07;;;2.00;;
85871;SDS011;76390;44.082;3.046;2024-02-21T11:31:41;3.78;;;1.90;;
85871;SDS011;76390;44.082;3.046;2024-02-21T11:34:08;4.10;;;2.22;;
85871;SDS011;76390;44.082;3.046;2024-02-21T11:36:34;5.50;;;2.35;;
85871;SDS011;76390;44.082;3.046;2024-02-21T11:39:03;7.03;;;2.10;;
85871;SDS011;76390;44.082;3.046;2024-02-21T11:41:29;4.40;;;1.83;;
85871;SDS011;76390;44.082;3.046;2024-02-21T11:43:55;3.38;;;1.75;;
85871;SDS011;76390;44.082;3.046;2024-02-21T11:46:21;4.60;;;1.80;;
85871;SDS011;76390;44.082;3.046;2024-02-21T11:48:46;3.58;;;1.85;;
85871;SDS011;76390;44.082;3.046;2024-02-21T11:51:21;4.35;;;1.88;;
85871;SDS011;76390;44.082;3.046;2024-02-21T11:53:50;5.65;;;1.90;;
85871;SDS011;76390;44.082;3.046;2024-02-21T11:56:16;4.13;;;1.90;;
85871;SDS011;76390;44.082;3.046;2024-02-21T11:58:42;3.25;;;1.70;;
85871;SDS011;76390;44.082;3.046;2024-02-21T12:01:08;4.18;;;1.83;;
85871;SDS011;76390;44.082;3.046;2024-02-21T12:03:33;4.28;;;1.90;;
85871;SDS011;76390;44.082;3.046;2024-02-21T12:06:02;4.22;;;1.67;;
85871;SDS011;76390;44.082;3.046;2024-02-21T12:08:40;3.33;;;1.63;;
85871;SDS011;76390;44.082;3.046;2024-02-21T12:11:15;4.53;;;1.85;;
85871;SDS011;76390;44.082;3.046;2024-02-21T12:13:43;4.55;;;1.98;;
85871;SDS011;76390;44.082;3.046;2024-02-21T12:16:09;4.55;;;1.60;;
85871;SDS011;76390;44.082;3.046;2024-02-21T12:18:34;4.53;;;1.80;;
85871;SDS011;76390;44.082;3.046;2024-02-21T12:21:00;4.55;;;1.70;;
85871;SDS011;76390;44.082;3.046;2024-02-21T12:23:26;3.28;;;1.40;;
85871;SDS011;76390;44.082;3.046;2024-02-21T12:25:52;3.40;;;1.50;;
85871;SDS011;76390;44.082;3.046;2024-02-21T12:28:20;4.60;;;1.70;;
85871;SDS011;76390;44.082;3.046;2024-02-21T12:30:47;2.88;;;1.40;;
85871;SDS011;76390;44.082;3.046;2024-02-21T12:33:12;2.38;;;1.17;;
85871;SDS011;76390;44.082;3.046;2024-02-21T12:35:39;2.85;;;1.40;;
85871;SDS011;76390;44.082;3.046;2024-02-21T12:38:05;2.75;;;1.30;;
85871;SDS011;76390;44.082;3.046;2024-02-21T12:40:30;2.17;;;1.25;;
85871;SDS011;76390;44.082;3.046;2024-02-21T12:42:59;3.03;;;1.50;;
85871;SDS011;76390;44.082;3.046;2024-02-21T12:45:27;3.08;;;1.60;;
85871;SDS011;76390;44.082;3.046;2024-02-21T12:47:53;2.50;;;1.30;;
85871;SDS011;76390;44.082;3.046;2024-02-21T12:50:18;4.85;;;1.52;;
85871;SDS011;76390;44.082;3.046;2024-02-21T12:52:44;4.43;;;1.25;;
85871;SDS011;76390;44.082;3.046;2024-02-21T12:55:10;2.83;;;1.30;;
85871;SDS011;76390;44.082;3.046;2024-02-21T12:57:37;5.03;;;1.30;;
85871;SDS011;76390;44.082;3.046;2024-02-21T13:00:02;3.55;;;1.15;;
85871;SDS011;76390;44.082;3.046;2024-02-21T13:02:29;3.35;;;1.20;;
85871;SDS011;76390;44.082;3.046;2024-02-21T13:04:54;4.47;;;1.35;;
85871;SDS011;76390;44.082;3.046;2024-02-21T13:07:20;4.25;;;1.20;;
85871;SDS011;76390;44.082;3.046;2024-02-21T13:09:45;2.17;;;0.98;;
85871;SDS011;76390;44.082;3.046;2024-02-21T13:12:11;2.20;;;1.08;;
85871;SDS011;76390;44.082;3.046;2024-02-21T13:14:37;2.83;;;1.17;;
85871;SDS011;76390;44.082;3.046;2024-02-21T13:17:04;2.22;;;1.17;;
85871;SDS011;76390;44.082;3.046;2024-02-21T13:19:29;2.85;;;1.20;;
85871;SDS011;76390;44.082;3.046;2024-02-21T13:21:55;3.85;;;1.40;;
85871;SDS011;76390;44.082;3.046;2024-02-21T13:24:20;2.10;;;0.93;;
85871;SDS011;76390;44.082;3.046;2024-02-21T13:26:46;3.97;;;1.25;;
85871;SDS011;76390;44.082;3.046;2024-02-21T13:29:11;1.90;;;1.20;;
85871;SDS011;76390;44.082;3.046;2024-02-21T13:31:37;3.13;;;1.20;;
85871;SDS011;76390;44.082;3.046;2024-02-21T13:34:02;2.30;;;1.10;;
85871;SDS011;76390;44.082;3.046;2024-02-21T13:36:28;2.75;;;1.13;;
85871;SDS011;76390;44.082;3.046;2024-02-21T13:38:53;1.80;;;1.00;;
85871;SDS011;76390;44.082;3.046;2024-02-21T13:41:19;2.58;;;1.35;;
85871;SDS011;76390;44.082;3.046;2024-02-21T13:43:47;6.80;;;1.95;;
85871;SDS011;76390;44.082;3.046;2024-02-21T13:46:12;2.17;;;1.00;;
85871;SDS011;76390;44.082;3.046;2024-02-21T13:48:38;4.93;;;1.35;;
85871;SDS011;76390;44.082;3.046;2024-02-21T13:51:04;3.10;;;1.33;;
85871;SDS011;76390;44.082;3.046;2024-02-21T13:53:29;3.33;;;1.00;;
85871;SDS011;76390;44.082;3.046;2024-02-21T13:55:55;2.83;;;1.17;;
85871;SDS011;76390;44.082;3.046;2024-02-21T13:58:20;1.95;;;0.95;;
85871;SDS011;76390;44.082;3.046;2024-02-21T14:00:47;2.95;;;1.40;;
85871;SDS011;76390;44.082;3.046;2024-02-21T14:03:12;5.47;;;0.85;;
85871;SDS011;76390;44.082;3.046;2024-02-21T14:05:38;1.52;;;1.10;;
85871;SDS011;76390;44.082;3.046;2024-02-21T14:08:05;2.38;;;1.20;;
85871;SDS011;76390;44.082;3.046;2024-02-21T14:10:31;1.48;;;0.70;;
85871;SDS011;76390;44.082;3.046;2024-02-21T14:12:57;1.80;;;0.70;;
85871;SDS011;76390;44.082;3.046;2024-02-21T14:15:22;3.65;;;0.82;;
85871;SDS011;76390;44.082;3.046;2024-02-21T14:17:50;1.73;;;0.88;;
85871;SDS011;76390;44.082;3.046;2024-02-21T14:20:15;2.03;;;0.70;;
85871;SDS011;76390;44.082;3.046;2024-02-21T14:22:41;1.63;;;0.80;;
85871;SDS011;76390;44.082;3.046;2024-02-21T14:25:06;2.97;;;0.95;;
85871;SDS011;76390;44.082;3.046;2024-02-21T14:27:32;1.35;;;0.90;;
85871;SDS011;76390;44.082;3.046;2024-02-21T14:29:58;2.75;;;0.80;;
85871;SDS011;76390;44.082;3.046;2024-02-21T14:32:23;1.55;;;0.80;;
85871;SDS011;76390;44.082;3.046;2024-02-21T14:34:49;1.58;;;0.88;;
85871;SDS011;76390;44.082;3.046;2024-02-21T14:37:15;1.52;;;0.85;;
85871;SDS011;76390;44.082;3.046;2024-02-21T14:39:41;2.58;;;1.13;;
85871;SDS011;76390;44.082;3.046;2024-02-21T14:42:06;1.60;;;0.80;;
85871;SDS011;76390;44.082;3.046;2024-02-21T14:44:34;2.45;;;1.08;;
85871;SDS011;76390;44.082;3.046;2024-02-21T14:47:00;4.93;;;0.93;;
85871;SDS011;76390;44.082;3.046;2024-02-21T14:49:26;1.73;;;0.82;;